sensor_id;sensor_type;location;lat;lon;timestamp;noise_LAeq;noise_LA_min;noise_LA_max;noise_LA01;noise_LA95
72160;Laerm;60045;51.792;10.938;2023-05-21T00:01:38;30.36;28.18;37.04;;
72160;Laerm;60045;51.792;10.938;2023-05-21T00:04:04;30.41;28.93;33.11;;
72160;Laerm;60045;51.792;10.938;2023-05-21T00:06:32;50.39;28.91;67.12;;
72160;Laerm;60045;51.792;10.938;2023-05-21T00:09:00;30.92;28.38;35.60;;
72160;Laerm;60045;51.792;10.938;2023-05-21T00:11:25;30.03;28.46;34.94;;
72160;Laerm;60045;51.792;10.938;2023-05-21T00:13:51;57.80;29.05;75.44;;
72160;Laerm;60045;51.792;10.938;2023-05-21T00:16:17;31.05;28.13;38.23;;
72160;Laerm;60045;51.792;10.938;2023-05-21T00:18:42;29.48;28.11;33.74;;
72160;Laerm;60045;51.792;10.938;2023-05-21T00:21:09;33.04;28.44;40.77;;
72160;Laerm;60045;51.792;10.938;2023-05-21T00:23:36;31.45;29.25;39.66;;
72160;Laerm;60045;51.792;10.938;2023-05-21T00:26:03;30.36;27.99;39.10;;
72160;Laerm;60045;51.792;10.938;2023-05-21T00:28:29;29.06;28.13;32.36;;
72160;Laerm;60045;51.792;10.938;2023-05-21T00:30:55;30.00;28.50;34.43;;
72160;Laerm;60045;51.792;10.938;2023-05-21T00:33:21;29.54;28.11;32.83;;
72160;Laerm;60045;51.792;10.938;2023-05-21T00:35:50;29.96;28.45;35.12;;
72160;Laerm;60045;51.792;10.938;2023-05-21T00:38:15;29.76;27.87;37.61;;
72160;Laerm;60045;51.792;10.938;2023-05-21T00:40:41;29.50;27.72;35.43;;
72160;Laerm;60045;51.792;10.938;2023-05-21T00:43:07;50.97;28.42;68.40;;
72160;Laerm;60045;51.792;10.938;2023-05-21T00:45:36;29.05;27.72;32.34;;
72160;Laerm;60045;51.792;10.938;2023-05-21T00:48:02;29.13;27.89;34.62;;
72160;Laerm;60045;51.792;10.938;2023-05-21T00:50:28;30.19;28.14;36.02;;
72160;Laerm;60045;51.792;10.938;2023-05-21T00:52:54;29.39;27.86;35.18;;
72160;Laerm;60045;51.792;10.938;2023-05-21T00:55:20;30.42;27.86;41.21;;
72160;Laerm;60045;51.792;10.938;2023-05-21T00:57:46;28.83;27.65;32.40;;
72160;Laerm;60045;51.792;10.938;2023-05-21T01:00:13;35.48;28.16;64.01;;
72160;Laerm;60045;51.792;10.938;2023-05-21T01:02:40;30.20;28.12;41.59;;
72160;Laerm;60045;51.792;10.938;2023-05-21T01:05:08;29.28;27.84;32.19;;
72160;Laerm;60045;51.792;10.938;2023-05-21T01:07:35;48.41;28.56;69.81;;
72160;Laerm;60045;51.792;10.938;2023-05-21T01:10:04;51.56;27.54;70.46;;
72160;Laerm;60045;51.792;10.938;2023-05-21T01:12:31;28.25;27.39;30.54;;
72160;Laerm;60045;51.792;10.938;2023-05-21T01:14:58;28.34;27.53;29.65;;
72160;Laerm;60045;51.792;10.938;2023-05-21T01:17:25;28.26;27.32;32.74;;
72160;Laerm;60045;51.792;10.938;2023-05-21T01:19:51;28.18;27.43;29.77;;
72160;Laerm;60045;51.792;10.938;2023-05-21T01:22:18;49.30;27.58;65.66;;
72160;Laerm;60045;51.792;10.938;2023-05-21T01:24:48;29.22;27.80;33.95;;
72160;Laerm;60045;51.792;10.938;2023-05-21T01:27:14;29.72;27.73;34.40;;
72160;Laerm;60045;51.792;10.938;2023-05-21T01:29:39;27.98;27.26;29.08;;
72160;Laerm;60045;51.792;10.938;2023-05-21T01:32:11;28.86;27.21;34.06;;
72160;Laerm;60045;51.792;10.938;2023-05-21T01:34:50;28.60;27.14;31.72;;
72160;Laerm;60045;51.792;10.938;2023-05-21T01:37:20;28.72;27.40;34.76;;
72160;Laerm;60045;51.792;10.938;2023-05-21T01:39:50;28.51;27.55;34.38;;
72160;Laerm;60045;51.792;10.938;2023-05-21T01:42:16;28.95;27.67;33.67;;
72160;Laerm;60045;51.792;10.938;2023-05-21T01:44:42;29.42;27.87;35.75;;
72160;Laerm;60045;51.792;10.938;2023-05-21T01:47:10;30.63;28.57;36.21;;
72160;Laerm;60045;51.792;10.938;2023-05-21T01:49:36;52.04;27.60;68.23;;
72160;Laerm;60045;51.792;10.938;2023-05-21T01:52:02;29.39;27.49;35.91;;
72160;Laerm;60045;51.792;10.938;2023-05-21T01:54:28;28.28;27.22;31.03;;
72160;Laerm;60045;51.792;10.938;2023-05-21T01:56:54;29.77;28.04;35.03;;
72160;Laerm;60045;51.792;10.938;2023-05-21T01:59:20;28.25;27.45;29.61;;
72160;Laerm;60045;51.792;10.938;2023-05-21T02:01:46;28.87;27.46;35.21;;
72160;Laerm;60045;51.792;10.938;2023-05-21T02:04:12;29.00;27.88;33.48;;
72160;Laerm;60045;51.792;10.938;2023-05-21T02:06:38;28.35;27.57;34.67;;
72160;Laerm;60045;51.792;10.938;2023-05-21T02:09:04;28.22;27.38;31.43;;
72160;Laerm;60045;51.792;10.938;2023-05-21T02:11:29;28.33;27.44;30.49;;
72160;Laerm;60045;51.792;10.938;2023-05-21T02:13:55;29.50;27.46;39.04;;
72160;Laerm;60045;51.792;10.938;2023-05-21T02:16:21;33.42;28.24;41.58;;
72160;Laerm;60045;51.792;10.938;2023-05-21T02:18:47;39.46;28.77;49.81;;
72160;Laerm;60045;51.792;10.938;2023-05-21T02:21:17;48.35;30.12;63.37;;
72160;Laerm;60045;51.792;10.938;2023-05-21T02:23:44;53.08;31.76;66.72;;
72160;Laerm;60045;51.792;10.938;2023-05-21T02:26:10;53.75;34.54;67.35;;
72160;Laerm;60045;51.792;10.938;2023-05-21T02:28:36;54.55;36.35;66.04;;
72160;Laerm;60045;51.792;10.938;2023-05-21T02:31:02;54.60;38.55;65.34;;
72160;Laerm;60045;51.792;10.938;2023-05-21T02:33:27;53.91;38.41;66.82;;
72160;Laerm;60045;51.792;10.938;2023-05-21T02:35:53;55.28;37.01;66.28;;
72160;Laerm;60045;51.792;10.938;2023-05-21T02:38:19;56.72;39.30;68.65;;
72160;Laerm;60045;51.792;10.938;2023-05-21T02:40:47;54.49;38.80;66.01;;
72160;Laerm;60045;51.792;10.938;2023-05-21T02:43:13;56.14;39.12;65.78;;
72160;Laerm;60045;51.792;10.938;2023-05-21T02:45:38;53.84;41.09;65.21;;
72160;Laerm;60045;51.792;10.938;2023-05-21T02:48:04;56.21;37.85;67.38;;
72160;Laerm;60045;51.792;10.938;2023-05-21T02:50:30;55.41;39.42;64.67;;
72160;Laerm;60045;51.792;10.938;2023-05-21T02:52:56;58.29;41.05;75.93;;
72160;Laerm;60045;51.792;10.938;2023-05-21T02:55:23;53.09;40.20;62.12;;
72160;Laerm;60045;51.792;10.938;2023-05-21T02:57:49;50.63;36.81;62.05;;
72160;Laerm;60045;51.792;10.938;2023-05-21T03:00:15;52.30;42.30;61.57;;
72160;Laerm;60045;51.792;10.938;2023-05-21T03:02:41;52.20;40.66;62.90;;
72160;Laerm;60045;51.792;10.938;2023-05-21T03:05:07;52.02;40.32;62.57;;
72160;Laerm;60045;51.792;10.938;2023-05-21T03:07:32;52.33;39.11;62.68;;
72160;Laerm;60045;51.792;10.938;2023-05-21T03:09:58;59.47;39.56;76.18;;
72160;Laerm;60045;51.792;10.938;2023-05-21T03:12:24;56.54;39.87;73.75;;
72160;Laerm;60045;51.792;10.938;2023-05-21T03:14:50;51.85;38.36;61.82;;
72160;Laerm;60045;51.792;10.938;2023-05-21T03:17:16;51.13;37.64;62.30;;
72160;Laerm;60045;51.792;10.938;2023-05-21T03:19:42;58.45;36.61;74.61;;
72160;Laerm;60045;51.792;10.938;2023-05-21T03:22:08;53.84;36.41;66.54;;
72160;Laerm;60045;51.792;10.938;2023-05-21T03:24:35;55.94;35.12;72.22;;
72160;Laerm;60045;51.792;10.938;2023-05-21T03:27:02;56.30;34.96;71.40;;
72160;Laerm;60045;51.792;10.938;2023-05-21T03:29:30;49.87;35.83;61.03;;
72160;Laerm;60045;51.792;10.938;2023-05-21T03:31:56;53.67;34.68;69.34;;
72160;Laerm;60045;51.792;10.938;2023-05-21T03:34:22;54.77;33.21;71.54;;
72160;Laerm;60045;51.792;10.938;2023-05-21T03:36:48;47.82;32.50;59.01;;
72160;Laerm;60045;51.792;10.938;2023-05-21T03:39:14;54.12;32.88;71.79;;
72160;Laerm;60045;51.792;10.938;2023-05-21T03:41:40;49.28;33.12;61.97;;
72160;Laerm;60045;51.792;10.938;2023-05-21T03:44:06;51.30;33.49;63.43;;
72160;Laerm;60045;51.792;10.938;2023-05-21T03:46:31;49.47;33.94;60.73;;
72160;Laerm;60045;51.792;10.938;2023-05-21T03:48:57;53.90;35.44;68.16;;
72160;Laerm;60045;51.792;10.938;2023-05-21T03:51:23;48.65;31.61;60.46;;
72160;Laerm;60045;51.792;10.938;2023-05-21T03:53:49;49.21;33.74;66.28;;
72160;Laerm;60045;51.792;10.938;2023-05-21T03:56:15;47.09;32.59;59.95;;
72160;Laerm;60045;51.792;10.938;2023-05-21T03:58:41;47.59;32.96;59.77;;
72160;Laerm;60045;51.792;10.938;2023-05-21T04:01:07;48.14;32.00;60.71;;
72160;Laerm;60045;51.792;10.938;2023-05-21T04:03:33;49.26;34.70;60.39;;
72160;Laerm;60045;51.792;10.938;2023-05-21T04:05:59;51.02;33.29;61.73;;
72160;Laerm;60045;51.792;10.938;2023-05-21T04:08:25;54.35;32.74;66.94;;
72160;Laerm;60045;51.792;10.938;2023-05-21T04:10:51;50.08;35.36;60.94;;
72160;Laerm;60045;51.792;10.938;2023-05-21T04:13:17;56.39;35.39;69.74;;
72160;Laerm;60045;51.792;10.938;2023-05-21T04:15:42;52.37;34.03;61.68;;
72160;Laerm;60045;51.792;10.938;2023-05-21T04:18:11;57.62;34.04;70.26;;
72160;Laerm;60045;51.792;10.938;2023-05-21T04:20:37;50.99;33.61;62.22;;
72160;Laerm;60045;51.792;10.938;2023-05-21T04:23:03;55.84;34.66;72.28;;
72160;Laerm;60045;51.792;10.938;2023-05-21T04:25:29;48.72;34.94;60.63;;
72160;Laerm;60045;51.792;10.938;2023-05-21T04:27:55;50.71;33.52;64.21;;
72160;Laerm;60045;51.792;10.938;2023-05-21T04:30:21;51.66;32.99;63.31;;
72160;Laerm;60045;51.792;10.938;2023-05-21T04:32:48;65.55;32.60;87.38;;
72160;Laerm;60045;51.792;10.938;2023-05-21T04:35:13;52.87;33.83;69.15;;
72160;Laerm;60045;51.792;10.938;2023-05-21T04:37:39;48.26;34.31;59.23;;
72160;Laerm;60045;51.792;10.938;2023-05-21T04:40:10;55.73;32.94;71.97;;
72160;Laerm;60045;51.792;10.938;2023-05-21T04:42:36;56.45;35.50;74.47;;
72160;Laerm;60045;51.792;10.938;2023-05-21T04:45:03;53.93;32.34;68.45;;
72160;Laerm;60045;51.792;10.938;2023-05-21T04:47:29;53.98;32.19;69.08;;
72160;Laerm;60045;51.792;10.938;2023-05-21T04:49:59;49.82;32.89;61.44;;
72160;Laerm;60045;51.792;10.938;2023-05-21T04:52:25;48.58;33.13;58.50;;
72160;Laerm;60045;51.792;10.938;2023-05-21T04:54:50;53.23;31.64;65.74;;
72160;Laerm;60045;51.792;10.938;2023-05-21T04:57:18;54.56;32.61;70.52;;
72160;Laerm;60045;51.792;10.938;2023-05-21T04:59:43;53.41;31.33;69.65;;
72160;Laerm;60045;51.792;10.938;2023-05-21T05:02:09;46.01;35.00;58.75;;
72160;Laerm;60045;51.792;10.938;2023-05-21T05:04:35;48.65;31.89;67.12;;
72160;Laerm;60045;51.792;10.938;2023-05-21T05:07:01;53.74;32.35;70.91;;
72160;Laerm;60045;51.792;10.938;2023-05-21T05:09:26;49.56;32.24;62.42;;
72160;Laerm;60045;51.792;10.938;2023-05-21T05:11:54;47.86;30.58;59.03;;
72160;Laerm;60045;51.792;10.938;2023-05-21T05:14:19;51.97;31.83;67.73;;
72160;Laerm;60045;51.792;10.938;2023-05-21T05:16:45;57.33;33.86;74.22;;
72160;Laerm;60045;51.792;10.938;2023-05-21T05:19:12;48.83;31.10;59.98;;
72160;Laerm;60045;51.792;10.938;2023-05-21T05:21:38;56.31;33.30;71.95;;
72160;Laerm;60045;51.792;10.938;2023-05-21T05:24:04;52.78;32.31;68.50;;
72160;Laerm;60045;51.792;10.938;2023-05-21T05:26:30;55.07;34.01;69.64;;
72160;Laerm;60045;51.792;10.938;2023-05-21T05:28:55;55.37;33.31;72.29;;
72160;Laerm;60045;51.792;10.938;2023-05-21T05:31:21;45.01;32.22;56.56;;
72160;Laerm;60045;51.792;10.938;2023-05-21T05:33:47;47.45;32.08;61.81;;
72160;Laerm;60045;51.792;10.938;2023-05-21T05:36:13;47.33;33.73;58.96;;
72160;Laerm;60045;51.792;10.938;2023-05-21T05:38:38;57.97;33.59;72.14;;
72160;Laerm;60045;51.792;10.938;2023-05-21T05:41:04;53.58;33.10;67.10;;
72160;Laerm;60045;51.792;10.938;2023-05-21T05:43:30;57.80;34.06;75.66;;
72160;Laerm;60045;51.792;10.938;2023-05-21T05:45:56;55.01;34.63;68.34;;
72160;Laerm;60045;51.792;10.938;2023-05-21T05:48:22;48.46;32.49;61.44;;
72160;Laerm;60045;51.792;10.938;2023-05-21T05:50:47;59.40;34.79;76.04;;
72160;Laerm;60045;51.792;10.938;2023-05-21T05:53:13;55.81;33.29;73.07;;
72160;Laerm;60045;51.792;10.938;2023-05-21T05:55:39;63.52;35.44;78.54;;
72160;Laerm;60045;51.792;10.938;2023-05-21T05:58:05;53.11;32.14;71.11;;
72160;Laerm;60045;51.792;10.938;2023-05-21T06:00:31;54.24;33.67;69.18;;
72160;Laerm;60045;51.792;10.938;2023-05-21T06:02:56;46.07;30.94;57.81;;
72160;Laerm;60045;51.792;10.938;2023-05-21T06:05:22;44.88;31.91;55.93;;
72160;Laerm;60045;51.792;10.938;2023-05-21T06:07:48;57.93;33.78;72.38;;
72160;Laerm;60045;51.792;10.938;2023-05-21T06:10:14;52.50;31.44;68.11;;
72160;Laerm;60045;51.792;10.938;2023-05-21T06:12:39;54.30;32.15;71.18;;
72160;Laerm;60045;51.792;10.938;2023-05-21T06:15:05;53.04;31.60;70.14;;
72160;Laerm;60045;51.792;10.938;2023-05-21T06:17:31;47.45;34.07;59.05;;
72160;Laerm;60045;51.792;10.938;2023-05-21T06:19:57;58.50;33.43;73.81;;
72160;Laerm;60045;51.792;10.938;2023-05-21T06:22:23;61.51;34.58;79.87;;
72160;Laerm;60045;51.792;10.938;2023-05-21T06:24:49;46.19;35.35;57.07;;
72160;Laerm;60045;51.792;10.938;2023-05-21T06:27:14;47.52;31.12;59.82;;
72160;Laerm;60045;51.792;10.938;2023-05-21T06:29:40;52.99;34.31;68.39;;
72160;Laerm;60045;51.792;10.938;2023-05-21T06:32:09;62.47;36.82;82.08;;
72160;Laerm;60045;51.792;10.938;2023-05-21T06:34:34;56.65;34.67;71.47;;
72160;Laerm;60045;51.792;10.938;2023-05-21T06:37:00;48.09;32.65;58.51;;
72160;Laerm;60045;51.792;10.938;2023-05-21T06:39:26;58.34;35.40;71.85;;
72160;Laerm;60045;51.792;10.938;2023-05-21T06:41:52;46.70;33.29;58.19;;
72160;Laerm;60045;51.792;10.938;2023-05-21T06:44:17;48.90;33.79;66.84;;
72160;Laerm;60045;51.792;10.938;2023-05-21T06:46:43;59.13;33.60;75.23;;
72160;Laerm;60045;51.792;10.938;2023-05-21T06:49:10;53.51;35.35;68.26;;
72160;Laerm;60045;51.792;10.938;2023-05-21T06:51:36;51.75;34.35;66.81;;
72160;Laerm;60045;51.792;10.938;2023-05-21T06:54:02;55.22;33.85;69.15;;
72160;Laerm;60045;51.792;10.938;2023-05-21T06:56:28;47.32;34.90;61.68;;
72160;Laerm;60045;51.792;10.938;2023-05-21T06:58:54;60.97;34.36;71.81;;
72160;Laerm;60045;51.792;10.938;2023-05-21T07:01:20;55.02;35.75;69.90;;
72160;Laerm;60045;51.792;10.938;2023-05-21T07:03:48;61.36;35.28;77.69;;
72160;Laerm;60045;51.792;10.938;2023-05-21T07:06:14;54.55;36.69;68.14;;
72160;Laerm;60045;51.792;10.938;2023-05-21T07:08:40;50.96;33.72;63.70;;
72160;Laerm;60045;51.792;10.938;2023-05-21T07:11:06;58.11;33.57;71.30;;
72160;Laerm;60045;51.792;10.938;2023-05-21T07:13:33;58.69;35.27;69.44;;
72160;Laerm;60045;51.792;10.938;2023-05-21T07:15:59;56.48;35.77;70.50;;
72160;Laerm;60045;51.792;10.938;2023-05-21T07:18:25;55.06;33.73;73.99;;
72160;Laerm;60045;51.792;10.938;2023-05-21T07:20:50;56.72;35.23;68.44;;
72160;Laerm;60045;51.792;10.938;2023-05-21T07:23:16;60.38;35.80;71.21;;
72160;Laerm;60045;51.792;10.938;2023-05-21T07:25:42;56.38;35.42;71.93;;
72160;Laerm;60045;51.792;10.938;2023-05-21T07:28:08;61.20;34.52;74.48;;
72160;Laerm;60045;51.792;10.938;2023-05-21T07:30:33;56.66;36.80;68.68;;
72160;Laerm;60045;51.792;10.938;2023-05-21T07:32:59;52.03;36.19;69.32;;
72160;Laerm;60045;51.792;10.938;2023-05-21T07:35:25;60.16;37.88;71.10;;
72160;Laerm;60045;51.792;10.938;2023-05-21T07:37:50;59.87;36.44;71.00;;
72160;Laerm;60045;51.792;10.938;2023-05-21T07:40:16;64.06;36.69;81.15;;
72160;Laerm;60045;51.792;10.938;2023-05-21T07:42:42;60.25;35.02;75.55;;
72160;Laerm;60045;51.792;10.938;2023-05-21T07:45:08;56.48;35.08;73.22;;
72160;Laerm;60045;51.792;10.938;2023-05-21T07:47:34;58.16;35.73;70.63;;
72160;Laerm;60045;51.792;10.938;2023-05-21T07:49:59;59.94;37.98;72.38;;
72160;Laerm;60045;51.792;10.938;2023-05-21T07:52:25;56.21;37.40;69.00;;
72160;Laerm;60045;51.792;10.938;2023-05-21T07:54:51;60.55;37.66;73.83;;
72160;Laerm;60045;51.792;10.938;2023-05-21T07:57:17;61.48;37.05;73.91;;
72160;Laerm;60045;51.792;10.938;2023-05-21T07:59:42;63.89;38.99;77.92;;
72160;Laerm;60045;51.792;10.938;2023-05-21T08:02:08;58.11;36.29;72.27;;
72160;Laerm;60045;51.792;10.938;2023-05-21T08:04:34;62.52;37.36;76.88;;
72160;Laerm;60045;51.792;10.938;2023-05-21T08:07:00;59.79;39.00;70.76;;
72160;Laerm;60045;51.792;10.938;2023-05-21T08:09:25;59.93;38.35;70.61;;
72160;Laerm;60045;51.792;10.938;2023-05-21T08:11:51;56.96;37.33;69.34;;
72160;Laerm;60045;51.792;10.938;2023-05-21T08:14:17;57.69;36.90;69.53;;
72160;Laerm;60045;51.792;10.938;2023-05-21T08:16:43;59.27;36.16;70.68;;
72160;Laerm;60045;51.792;10.938;2023-05-21T08:19:09;56.62;35.75;70.85;;
72160;Laerm;60045;51.792;10.938;2023-05-21T08:21:35;60.19;36.40;72.33;;
72160;Laerm;60045;51.792;10.938;2023-05-21T08:24:00;55.73;36.41;70.13;;
72160;Laerm;60045;51.792;10.938;2023-05-21T08:26:27;64.08;40.40;75.01;;
72160;Laerm;60045;51.792;10.938;2023-05-21T08:28:52;58.29;37.11;71.98;;
72160;Laerm;60045;51.792;10.938;2023-05-21T08:31:18;59.00;36.58;73.15;;
72160;Laerm;60045;51.792;10.938;2023-05-21T08:33:50;57.98;37.10;74.97;;
72160;Laerm;60045;51.792;10.938;2023-05-21T08:36:16;57.90;35.89;70.80;;
72160;Laerm;60045;51.792;10.938;2023-05-21T08:38:42;63.21;37.67;77.99;;
72160;Laerm;60045;51.792;10.938;2023-05-21T08:41:09;54.07;36.18;68.42;;
72160;Laerm;60045;51.792;10.938;2023-05-21T08:43:35;57.18;36.39;68.74;;
72160;Laerm;60045;51.792;10.938;2023-05-21T08:46:02;59.37;38.09;75.90;;
72160;Laerm;60045;51.792;10.938;2023-05-21T08:48:28;69.22;41.75;91.82;;
72160;Laerm;60045;51.792;10.938;2023-05-21T08:50:55;65.07;37.02;83.48;;
72160;Laerm;60045;51.792;10.938;2023-05-21T08:53:21;60.34;40.35;71.78;;
72160;Laerm;60045;51.792;10.938;2023-05-21T08:55:48;59.19;36.54;71.63;;
72160;Laerm;60045;51.792;10.938;2023-05-21T08:58:15;55.04;35.05;71.04;;
72160;Laerm;60045;51.792;10.938;2023-05-21T09:00:40;60.86;36.28;75.46;;
72160;Laerm;60045;51.792;10.938;2023-05-21T09:03:06;58.40;38.44;71.26;;
72160;Laerm;60045;51.792;10.938;2023-05-21T09:05:34;64.60;39.13;79.54;;
72160;Laerm;60045;51.792;10.938;2023-05-21T09:08:03;60.40;36.43;74.28;;
72160;Laerm;60045;51.792;10.938;2023-05-21T09:10:33;61.44;38.74;80.04;;
72160;Laerm;60045;51.792;10.938;2023-05-21T09:13:00;60.18;36.27;70.47;;
72160;Laerm;60045;51.792;10.938;2023-05-21T09:15:26;60.61;40.93;73.62;;
72160;Laerm;60045;51.792;10.938;2023-05-21T09:17:51;68.88;42.57;93.10;;
72160;Laerm;60045;51.792;10.938;2023-05-21T09:20:17;62.22;39.50;78.80;;
72160;Laerm;60045;51.792;10.938;2023-05-21T09:22:48;62.85;36.20;80.42;;
72160;Laerm;60045;51.792;10.938;2023-05-21T09:25:16;61.64;36.77;78.36;;
72160;Laerm;60045;51.792;10.938;2023-05-21T09:27:42;61.35;37.01;77.60;;
72160;Laerm;60045;51.792;10.938;2023-05-21T09:30:09;67.68;38.27;84.74;;
72160;Laerm;60045;51.792;10.938;2023-05-21T09:32:36;58.07;38.65;70.70;;
72160;Laerm;60045;51.792;10.938;2023-05-21T09:35:05;60.23;36.52;72.61;;
72160;Laerm;60045;51.792;10.938;2023-05-21T09:37:31;60.18;35.08;72.51;;
72160;Laerm;60045;51.792;10.938;2023-05-21T09:40:04;58.85;37.95;71.47;;
72160;Laerm;60045;51.792;10.938;2023-05-21T09:42:29;60.38;38.72;73.75;;
72160;Laerm;60045;51.792;10.938;2023-05-21T09:44:55;61.11;39.16;74.36;;
72160;Laerm;60045;51.792;10.938;2023-05-21T09:47:21;57.30;34.80;72.29;;
72160;Laerm;60045;51.792;10.938;2023-05-21T09:49:47;65.53;38.95;82.21;;
72160;Laerm;60045;51.792;10.938;2023-05-21T09:52:14;59.92;35.58;71.92;;
72160;Laerm;60045;51.792;10.938;2023-05-21T09:54:47;62.51;39.13;76.74;;
72160;Laerm;60045;51.792;10.938;2023-05-21T09:57:13;58.22;36.82;70.88;;
72160;Laerm;60045;51.792;10.938;2023-05-21T09:59:38;60.38;38.72;72.27;;
72160;Laerm;60045;51.792;10.938;2023-05-21T10:02:14;61.21;34.10;77.53;;
72160;Laerm;60045;51.792;10.938;2023-05-21T10:04:40;61.22;37.83;73.65;;
72160;Laerm;60045;51.792;10.938;2023-05-21T10:07:07;60.95;35.69;72.47;;
72160;Laerm;60045;51.792;10.938;2023-05-21T10:09:33;65.85;35.69;84.12;;
72160;Laerm;60045;51.792;10.938;2023-05-21T10:11:59;69.31;39.13;84.05;;
72160;Laerm;60045;51.792;10.938;2023-05-21T10:14:24;63.49;43.13;76.71;;
72160;Laerm;60045;51.792;10.938;2023-05-21T10:16:53;67.63;36.95;83.04;;
72160;Laerm;60045;51.792;10.938;2023-05-21T10:19:19;61.43;33.32;77.23;;
72160;Laerm;60045;51.792;10.938;2023-05-21T10:21:45;67.24;38.15;84.11;;
72160;Laerm;60045;51.792;10.938;2023-05-21T10:24:11;59.95;34.63;72.49;;
72160;Laerm;60045;51.792;10.938;2023-05-21T10:26:38;61.54;35.62;73.77;;
72160;Laerm;60045;51.792;10.938;2023-05-21T10:29:04;65.11;38.47;83.19;;
72160;Laerm;60045;51.792;10.938;2023-05-21T10:31:32;62.90;38.40;74.23;;
72160;Laerm;60045;51.792;10.938;2023-05-21T10:33:59;55.64;36.86;70.64;;
72160;Laerm;60045;51.792;10.938;2023-05-21T10:36:24;59.34;35.78;72.17;;
72160;Laerm;60045;51.792;10.938;2023-05-21T10:38:55;60.26;37.71;71.60;;
72160;Laerm;60045;51.792;10.938;2023-05-21T10:41:21;64.96;39.85;78.64;;
72160;Laerm;60045;51.792;10.938;2023-05-21T10:54:19;60.58;36.42;71.22;;
72160;Laerm;60045;51.792;10.938;2023-05-21T10:56:59;63.00;37.99;77.00;;
72160;Laerm;60045;51.792;10.938;2023-05-21T10:59:34;59.02;37.49;73.78;;
72160;Laerm;60045;51.792;10.938;2023-05-21T11:02:01;58.70;34.80;70.36;;
72160;Laerm;60045;51.792;10.938;2023-05-21T11:04:28;56.54;32.74;71.25;;
72160;Laerm;60045;51.792;10.938;2023-05-21T11:06:54;61.23;38.88;71.18;;
72160;Laerm;60045;51.792;10.938;2023-05-21T11:09:22;60.49;38.13;74.25;;
72160;Laerm;60045;51.792;10.938;2023-05-21T11:11:51;62.13;39.94;75.79;;
72160;Laerm;60045;51.792;10.938;2023-05-21T11:14:36;61.54;39.62;77.21;;
72160;Laerm;60045;51.792;10.938;2023-05-21T11:17:09;59.76;36.06;70.96;;
72160;Laerm;60045;51.792;10.938;2023-05-21T11:19:39;61.20;35.43;72.42;;
72160;Laerm;60045;51.792;10.938;2023-05-21T11:22:06;55.17;34.94;67.26;;
72160;Laerm;60045;51.792;10.938;2023-05-21T11:24:34;64.39;39.24;80.17;;
72160;Laerm;60045;51.792;10.938;2023-05-21T11:27:01;62.93;37.22;74.69;;
72160;Laerm;60045;51.792;10.938;2023-05-21T11:29:35;58.31;37.02;70.92;;
72160;Laerm;60045;51.792;10.938;2023-05-21T11:32:04;63.79;35.59;84.36;;
72160;Laerm;60045;51.792;10.938;2023-05-21T11:34:43;63.76;38.87;79.24;;
72160;Laerm;60045;51.792;10.938;2023-05-21T11:39:42;62.33;37.47;74.23;;
72160;Laerm;60045;51.792;10.938;2023-05-21T11:42:08;58.21;34.82;69.36;;
72160;Laerm;60045;51.792;10.938;2023-05-21T11:44:40;64.28;38.80;78.37;;
72160;Laerm;60045;51.792;10.938;2023-05-21T11:47:10;62.60;38.67;73.93;;
72160;Laerm;60045;51.792;10.938;2023-05-21T11:49:36;57.40;35.28;73.22;;
72160;Laerm;60045;51.792;10.938;2023-05-21T11:52:03;65.94;35.31;81.43;;
72160;Laerm;60045;51.792;10.938;2023-05-21T11:54:29;64.89;40.39;81.12;;
72160;Laerm;60045;51.792;10.938;2023-05-21T11:57:01;67.54;41.28;81.54;;
72160;Laerm;60045;51.792;10.938;2023-05-21T11:59:26;64.38;38.76;77.93;;
72160;Laerm;60045;51.792;10.938;2023-05-21T12:01:53;65.05;40.10;80.89;;
72160;Laerm;60045;51.792;10.938;2023-05-21T12:04:20;61.01;36.52;72.65;;
72160;Laerm;60045;51.792;10.938;2023-05-21T12:06:46;62.32;36.07;77.95;;
72160;Laerm;60045;51.792;10.938;2023-05-21T12:09:12;61.21;36.13;71.64;;
72160;Laerm;60045;51.792;10.938;2023-05-21T12:11:38;61.27;39.17;73.36;;
72160;Laerm;60045;51.792;10.938;2023-05-21T12:14:11;61.31;34.82;73.05;;
72160;Laerm;60045;51.792;10.938;2023-05-21T12:16:37;64.23;39.72;78.69;;
72160;Laerm;60045;51.792;10.938;2023-05-21T12:19:03;63.85;41.12;76.40;;
72160;Laerm;60045;51.792;10.938;2023-05-21T12:21:29;63.08;38.10;74.91;;
72160;Laerm;60045;51.792;10.938;2023-05-21T12:23:56;63.39;40.93;75.00;;
72160;Laerm;60045;51.792;10.938;2023-05-21T12:26:25;58.87;36.79;70.31;;
72160;Laerm;60045;51.792;10.938;2023-05-21T12:28:54;58.84;35.84;72.20;;
72160;Laerm;60045;51.792;10.938;2023-05-21T12:31:22;61.21;37.93;71.89;;
72160;Laerm;60045;51.792;10.938;2023-05-21T12:33:51;68.72;41.63;87.19;;
72160;Laerm;60045;51.792;10.938;2023-05-21T12:36:26;61.38;39.06;79.13;;
72160;Laerm;60045;51.792;10.938;2023-05-21T12:38:52;59.66;37.07;74.49;;
72160;Laerm;60045;51.792;10.938;2023-05-21T12:41:18;55.82;35.51;68.06;;
72160;Laerm;60045;51.792;10.938;2023-05-21T12:43:45;57.84;38.98;72.22;;
72160;Laerm;60045;51.792;10.938;2023-05-21T12:46:11;58.65;36.39;70.39;;
72160;Laerm;60045;51.792;10.938;2023-05-21T12:48:47;61.98;40.56;75.61;;
72160;Laerm;60045;51.792;10.938;2023-05-21T12:51:12;63.58;41.24;76.54;;
72160;Laerm;60045;51.792;10.938;2023-05-21T12:53:40;63.47;40.94;81.68;;
72160;Laerm;60045;51.792;10.938;2023-05-21T12:56:12;62.36;38.13;79.18;;
72160;Laerm;60045;51.792;10.938;2023-05-21T12:58:38;60.90;38.78;70.84;;
72160;Laerm;60045;51.792;10.938;2023-05-21T13:01:05;56.93;34.41;67.60;;
72160;Laerm;60045;51.792;10.938;2023-05-21T13:03:31;72.86;36.02;89.12;;
72160;Laerm;60045;51.792;10.938;2023-05-21T13:05:57;58.81;39.22;70.50;;
72160;Laerm;60045;51.792;10.938;2023-05-21T13:08:23;66.43;39.81;77.23;;
72160;Laerm;60045;51.792;10.938;2023-05-21T13:10:49;74.47;41.71;87.60;;
72160;Laerm;60045;51.792;10.938;2023-05-21T13:13:15;62.94;38.95;76.47;;
72160;Laerm;60045;51.792;10.938;2023-05-21T13:15:41;65.78;38.90;84.28;;
72160;Laerm;60045;51.792;10.938;2023-05-21T13:18:06;73.49;41.05;89.46;;
72160;Laerm;60045;51.792;10.938;2023-05-21T13:20:32;59.43;38.24;74.57;;
72160;Laerm;60045;51.792;10.938;2023-05-21T13:22:58;60.27;36.57;74.48;;
72160;Laerm;60045;51.792;10.938;2023-05-21T13:25:24;66.55;41.87;83.40;;
72160;Laerm;60045;51.792;10.938;2023-05-21T13:27:53;62.44;38.98;76.28;;
72160;Laerm;60045;51.792;10.938;2023-05-21T13:30:20;59.88;36.65;77.01;;
72160;Laerm;60045;51.792;10.938;2023-05-21T13:32:46;62.47;42.42;77.19;;
72160;Laerm;60045;51.792;10.938;2023-05-21T13:35:11;59.82;40.03;69.74;;
72160;Laerm;60045;51.792;10.938;2023-05-21T13:37:39;56.04;38.03;69.31;;
72160;Laerm;60045;51.792;10.938;2023-05-21T13:40:05;61.51;40.91;76.36;;
72160;Laerm;60045;51.792;10.938;2023-05-21T13:42:34;61.22;39.05;74.23;;